sensor_id;sensor_type;location;lat;lon;timestamp;temperature;humidity
33825;DHT22;20127;48.962;8.342;2022-08-21T00:01:14;17.50;81.40
33825;DHT22;20127;48.962;8.342;2022-08-21T00:04:16;17.50;81.80
33825;DHT22;20127;48.962;8.342;2022-08-21T00:07:18;17.40;82.10
33825;DHT22;20127;48.962;8.342;2022-08-21T00:10:20;17.30;82.60
33825;DHT22;20127;48.962;8.342;2022-08-21T00:13:24;17.30;83.10
33825;DHT22;20127;48.962;8.342;2022-08-21T00:16:26;17.30;83.40
33825;DHT22;20127;48.962;8.342;2022-08-21T00:19:28;17.20;83.70
33825;DHT22;20127;48.962;8.342;2022-08-21T00:22:29;17.20;84.50
33825;DHT22;20127;48.962;8.342;2022-08-21T00:25:31;17.20;84.10
33825;DHT22;20127;48.962;8.342;2022-08-21T00:28:34;17.20;84.40
33825;DHT22;20127;48.962;8.342;2022-08-21T00:31:37;17.10;84.50
33825;DHT22;20127;48.962;8.342;2022-08-21T00:34:39;17.00;85.20
33825;DHT22;20127;48.962;8.342;2022-08-21T00:37:41;16.90;85.40
33825;DHT22;20127;48.962;8.342;2022-08-21T00:40:46;16.90;85.90
33825;DHT22;20127;48.962;8.342;2022-08-21T00:43:49;16.80;86.40
33825;DHT22;20127;48.962;8.342;2022-08-21T00:46:52;16.80;86.60
33825;DHT22;20127;48.962;8.342;2022-08-21T00:49:54;16.80;87.00
33825;DHT22;20127;48.962;8.342;2022-08-21T00:52:56;16.70;87.30
33825;DHT22;20127;48.962;8.342;2022-08-21T00:56:00;16.60;87.70
33825;DHT22;20127;48.962;8.342;2022-08-21T00:59:04;16.60;88.10
33825;DHT22;20127;48.962;8.342;2022-08-21T01:02:07;16.50;88.60
33825;DHT22;20127;48.962;8.342;2022-08-21T01:05:10;16.50;88.90
33825;DHT22;20127;48.962;8.342;2022-08-21T01:08:14;16.50;89.50
33825;DHT22;20127;48.962;8.342;2022-08-21T01:11:16;16.50;89.70
33825;DHT22;20127;48.962;8.342;2022-08-21T01:14:20;16.50;89.80
33825;DHT22;20127;48.962;8.342;2022-08-21T01:17:22;16.40;89.90
33825;DHT22;20127;48.962;8.342;2022-08-21T01:20:25;16.30;90.10
33825;DHT22;20127;48.962;8.342;2022-08-21T01:23:29;16.30;90.10
33825;DHT22;20127;48.962;8.342;2022-08-21T01:26:33;16.30;90.40
33825;DHT22;20127;48.962;8.342;2022-08-21T01:29:38;16.30;90.60
33825;DHT22;20127;48.962;8.342;2022-08-21T01:32:40;16.30;90.40
33825;DHT22;20127;48.962;8.342;2022-08-21T01:35:42;16.20;90.60
33825;DHT22;20127;48.962;8.342;2022-08-21T01:38:45;16.30;90.80
33825;DHT22;20127;48.962;8.342;2022-08-21T01:41:47;16.30;90.90
33825;DHT22;20127;48.962;8.342;2022-08-21T01:44:49;16.30;90.80
33825;DHT22;20127;48.962;8.342;2022-08-21T01:47:51;16.30;91.20
33825;DHT22;20127;48.962;8.342;2022-08-21T01:50:52;16.20;91.00
33825;DHT22;20127;48.962;8.342;2022-08-21T01:53:55;16.10;91.20
33825;DHT22;20127;48.962;8.342;2022-08-21T01:56:58;16.10;91.10
33825;DHT22;20127;48.962;8.342;2022-08-21T02:00:02;16.10;91.10
33825;DHT22;20127;48.962;8.342;2022-08-21T02:03:04;16.00;91.30
33825;DHT22;20127;48.962;8.342;2022-08-21T02:06:07;16.00;91.40
33825;DHT22;20127;48.962;8.342;2022-08-21T02:09:15;15.90;91.40
33825;DHT22;20127;48.962;8.342;2022-08-21T02:12:16;15.80;91.70
33825;DHT22;20127;48.962;8.342;2022-08-21T02:15:18;15.70;92.00
33825;DHT22;20127;48.962;8.342;2022-08-21T02:18:20;15.70;91.90
33825;DHT22;20127;48.962;8.342;2022-08-21T02:21:22;15.60;91.90
33825;DHT22;20127;48.962;8.342;2022-08-21T02:24:25;15.50;92.10
33825;DHT22;20127;48.962;8.342;2022-08-21T02:27:27;15.50;92.50
33825;DHT22;20127;48.962;8.342;2022-08-21T02:30:30;15.50;92.40
33825;DHT22;20127;48.962;8.342;2022-08-21T02:33:33;15.60;92.40
33825;DHT22;20127;48.962;8.342;2022-08-21T02:36:35;15.50;92.50
33825;DHT22;20127;48.962;8.342;2022-08-21T02:39:38;15.40;92.50
33825;DHT22;20127;48.962;8.342;2022-08-21T02:42:39;15.40;92.80
33825;DHT22;20127;48.962;8.342;2022-08-21T02:45:42;15.40;92.90
33825;DHT22;20127;48.962;8.342;2022-08-21T02:48:45;15.50;92.70
33825;DHT22;20127;48.962;8.342;2022-08-21T02:51:47;15.50;92.60
33825;DHT22;20127;48.962;8.342;2022-08-21T02:54:50;15.40;92.60
33825;DHT22;20127;48.962;8.342;2022-08-21T02:57:52;15.40;92.60
33825;DHT22;20127;48.962;8.342;2022-08-21T03:00:54;15.30;92.70
33825;DHT22;20127;48.962;8.342;2022-08-21T03:03:56;15.20;92.80
33825;DHT22;20127;48.962;8.342;2022-08-21T03:06:58;15.10;92.90
33825;DHT22;20127;48.962;8.342;2022-08-21T03:10:01;15.00;93.00
33825;DHT22;20127;48.962;8.342;2022-08-21T03:13:03;15.00;93.30
33825;DHT22;20127;48.962;8.342;2022-08-21T03:16:05;14.90;93.60
33825;DHT22;20127;48.962;8.342;2022-08-21T03:19:07;14.90;93.70
33825;DHT22;20127;48.962;8.342;2022-08-21T03:22:09;15.00;93.90
33825;DHT22;20127;48.962;8.342;2022-08-21T03:25:12;15.00;94.00
33825;DHT22;20127;48.962;8.342;2022-08-21T03:28:17;15.00;94.00
33825;DHT22;20127;48.962;8.342;2022-08-21T03:31:20;15.10;93.80
33825;DHT22;20127;48.962;8.342;2022-08-21T03:34:22;15.10;93.60
33825;DHT22;20127;48.962;8.342;2022-08-21T03:37:23;15.00;93.50
33825;DHT22;20127;48.962;8.342;2022-08-21T03:40:27;15.00;93.60
33825;DHT22;20127;48.962;8.342;2022-08-21T03:43:29;15.00;93.60
33825;DHT22;20127;48.962;8.342;2022-08-21T03:46:31;15.00;93.70
33825;DHT22;20127;48.962;8.342;2022-08-21T03:49:33;14.90;93.60
33825;DHT22;20127;48.962;8.342;2022-08-21T03:52:35;14.90;93.70
33825;DHT22;20127;48.962;8.342;2022-08-21T03:55:38;14.80;93.80
33825;DHT22;20127;48.962;8.342;2022-08-21T03:58:40;14.70;94.00
33825;DHT22;20127;48.962;8.342;2022-08-21T04:01:51;14.70;94.10
33825;DHT22;20127;48.962;8.342;2022-08-21T04:04:53;14.70;94.00
33825;DHT22;20127;48.962;8.342;2022-08-21T04:07:56;14.60;94.00
33825;DHT22;20127;48.962;8.342;2022-08-21T04:11:00;14.60;94.20
33825;DHT22;20127;48.962;8.342;2022-08-21T04:14:02;14.60;94.40
33825;DHT22;20127;48.962;8.342;2022-08-21T04:17:04;14.60;94.50
33825;DHT22;20127;48.962;8.342;2022-08-21T04:20:08;14.60;94.20
33825;DHT22;20127;48.962;8.342;2022-08-21T04:23:10;14.60;94.00
33825;DHT22;20127;48.962;8.342;2022-08-21T04:26:13;14.50;93.90
33825;DHT22;20127;48.962;8.342;2022-08-21T04:29:14;14.40;94.00
33825;DHT22;20127;48.962;8.342;2022-08-21T04:32:21;14.30;94.20
33825;DHT22;20127;48.962;8.342;2022-08-21T04:35:26;14.20;94.30
33825;DHT22;20127;48.962;8.342;2022-08-21T04:38:28;14.20;94.30
33825;DHT22;20127;48.962;8.342;2022-08-21T04:41:33;14.20;94.30
33825;DHT22;20127;48.962;8.342;2022-08-21T04:44:34;14.30;94.40
33825;DHT22;20127;48.962;8.342;2022-08-21T04:47:36;14.20;94.50
33825;DHT22;20127;48.962;8.342;2022-08-21T04:50:41;14.10;94.60
33825;DHT22;20127;48.962;8.342;2022-08-21T04:53:47;14.20;94.60
33825;DHT22;20127;48.962;8.342;2022-08-21T04:56:54;14.20;94.70
33825;DHT22;20127;48.962;8.342;2022-08-21T04:59:58;14.30;94.70
33825;DHT22;20127;48.962;8.342;2022-08-21T05:03:00;14.40;94.60
33825;DHT22;20127;48.962;8.342;2022-08-21T05:06:03;14.50;94.70
33825;DHT22;20127;48.962;8.342;2022-08-21T05:09:06;14.60;94.30
33825;DHT22;20127;48.962;8.342;2022-08-21T05:12:11;14.70;94.20
33825;DHT22;20127;48.962;8.342;2022-08-21T05:15:13;14.90;94.00
33825;DHT22;20127;48.962;8.342;2022-08-21T05:18:14;15.00;93.70
33825;DHT22;20127;48.962;8.342;2022-08-21T05:21:17;15.20;93.60
33825;DHT22;20127;48.962;8.342;2022-08-21T05:24:18;15.50;93.40
33825;DHT22;20127;48.962;8.342;2022-08-21T05:27:21;15.70;93.00
33825;DHT22;20127;48.962;8.342;2022-08-21T05:30:23;15.90;92.50
33825;DHT22;20127;48.962;8.342;2022-08-21T05:33:25;16.10;92.20
33825;DHT22;20127;48.962;8.342;2022-08-21T05:36:27;16.30;91.80
33825;DHT22;20127;48.962;8.342;2022-08-21T05:39:28;16.50;91.40
33825;DHT22;20127;48.962;8.342;2022-08-21T05:42:32;16.80;91.00
33825;DHT22;20127;48.962;8.342;2022-08-21T05:45:33;17.10;90.50
33825;DHT22;20127;48.962;8.342;2022-08-21T05:48:36;17.30;90.10
33825;DHT22;20127;48.962;8.342;2022-08-21T05:51:39;17.60;89.20
33825;DHT22;20127;48.962;8.342;2022-08-21T05:54:41;18.10;88.30
33825;DHT22;20127;48.962;8.342;2022-08-21T05:57:44;18.50;86.90
33825;DHT22;20127;48.962;8.342;2022-08-21T06:00:47;19.50;84.10
33825;DHT22;20127;48.962;8.342;2022-08-21T06:03:49;21.00;79.70
33825;DHT22;20127;48.962;8.342;2022-08-21T06:06:51;23.10;72.30
33825;DHT22;20127;48.962;8.342;2022-08-21T06:09:53;24.70;65.40
33825;DHT22;20127;48.962;8.342;2022-08-21T06:12:56;25.70;61.90
33825;DHT22;20127;48.962;8.342;2022-08-21T06:16:03;26.00;59.80
33825;DHT22;20127;48.962;8.342;2022-08-21T06:19:06;26.10;59.20
33825;DHT22;20127;48.962;8.342;2022-08-21T06:22:08;26.60;57.90
33825;DHT22;20127;48.962;8.342;2022-08-21T06:25:10;26.80;56.20
33825;DHT22;20127;48.962;8.342;2022-08-21T06:28:13;26.90;55.50
33825;DHT22;20127;48.962;8.342;2022-08-21T06:31:17;27.20;54.90
33825;DHT22;20127;48.962;8.342;2022-08-21T06:34:19;27.80;53.40
33825;DHT22;20127;48.962;8.342;2022-08-21T06:37:21;28.70;50.80
33825;DHT22;20127;48.962;8.342;2022-08-21T06:40:23;29.50;50.10
33825;DHT22;20127;48.962;8.342;2022-08-21T06:43:26;30.50;47.50
33825;DHT22;20127;48.962;8.342;2022-08-21T06:46:29;31.20;46.40
33825;DHT22;20127;48.962;8.342;2022-08-21T06:49:31;31.40;45.20
33825;DHT22;20127;48.962;8.342;2022-08-21T06:52:33;31.60;44.70
33825;DHT22;20127;48.962;8.342;2022-08-21T06:55:35;31.50;44.50
33825;DHT22;20127;48.962;8.342;2022-08-21T06:58:38;31.30;45.30
33825;DHT22;20127;48.962;8.342;2022-08-21T07:01:40;31.10;44.70
33825;DHT22;20127;48.962;8.342;2022-08-21T07:04:42;31.00;45.10
33825;DHT22;20127;48.962;8.342;2022-08-21T07:07:44;31.00;45.00
33825;DHT22;20127;48.962;8.342;2022-08-21T07:10:47;30.90;44.50
33825;DHT22;20127;48.962;8.342;2022-08-21T07:13:51;31.20;44.30
33825;DHT22;20127;48.962;8.342;2022-08-21T07:16:54;31.50;43.50
33825;DHT22;20127;48.962;8.342;2022-08-21T07:19:56;32.10;42.10
33825;DHT22;20127;48.962;8.342;2022-08-21T07:23:01;32.80;41.60
33825;DHT22;20127;48.962;8.342;2022-08-21T07:26:04;33.60;40.40
33825;DHT22;20127;48.962;8.342;2022-08-21T07:29:07;34.50;38.90
33825;DHT22;20127;48.962;8.342;2022-08-21T07:32:09;35.20;37.90
33825;DHT22;20127;48.962;8.342;2022-08-21T07:35:11;36.00;37.00
33825;DHT22;20127;48.962;8.342;2022-08-21T07:38:12;36.80;35.70
33825;DHT22;20127;48.962;8.342;2022-08-21T07:41:16;37.30;35.10
33825;DHT22;20127;48.962;8.342;2022-08-21T07:44:20;37.70;34.50
33825;DHT22;20127;48.962;8.342;2022-08-21T07:47:21;38.20;34.00
33825;DHT22;20127;48.962;8.342;2022-08-21T07:50:24;37.60;34.00
33825;DHT22;20127;48.962;8.342;2022-08-21T07:53:26;35.90;35.70
33825;DHT22;20127;48.962;8.342;2022-08-21T07:56:29;34.40;38.00
33825;DHT22;20127;48.962;8.342;2022-08-21T07:59:33;33.30;38.90
33825;DHT22;20127;48.962;8.342;2022-08-21T08:02:35;32.40;39.90
33825;DHT22;20127;48.962;8.342;2022-08-21T08:05:36;31.80;40.40
33825;DHT22;20127;48.962;8.342;2022-08-21T08:08:40;31.30;41.10
33825;DHT22;20127;48.962;8.342;2022-08-21T08:11:42;30.80;41.70
33825;DHT22;20127;48.962;8.342;2022-08-21T08:14:46;30.20;42.60
33825;DHT22;20127;48.962;8.342;2022-08-21T08:17:48;29.90;43.50
33825;DHT22;20127;48.962;8.342;2022-08-21T08:20:49;29.80;43.90
33825;DHT22;20127;48.962;8.342;2022-08-21T08:23:51;29.80;43.90
33825;DHT22;20127;48.962;8.342;2022-08-21T08:26:53;29.70;43.60
33825;DHT22;20127;48.962;8.342;2022-08-21T08:29:58;29.70;43.80
33825;DHT22;20127;48.962;8.342;2022-08-21T08:33:00;29.60;43.70
33825;DHT22;20127;48.962;8.342;2022-08-21T08:36:02;29.60;43.60
33825;DHT22;20127;48.962;8.342;2022-08-21T08:39:05;29.70;43.30
33825;DHT22;20127;48.962;8.342;2022-08-21T08:42:08;29.70;42.30
33825;DHT22;20127;48.962;8.342;2022-08-21T08:45:16;29.70;42.50
33825;DHT22;20127;48.962;8.342;2022-08-21T08:48:31;29.90;43.30
33825;DHT22;20127;48.962;8.342;2022-08-21T08:51:40;30.10;44.00
33825;DHT22;20127;48.962;8.342;2022-08-21T08:54:48;30.10;43.70
33825;DHT22;20127;48.962;8.342;2022-08-21T08:57:53;30.20;43.20
33825;DHT22;20127;48.962;8.342;2022-08-21T09:00:57;30.30;42.60
33825;DHT22;20127;48.962;8.342;2022-08-21T09:03:59;30.40;43.00
33825;DHT22;20127;48.962;8.342;2022-08-21T09:07:10;30.50;42.70
33825;DHT22;20127;48.962;8.342;2022-08-21T09:10:23;30.70;42.40
33825;DHT22;20127;48.962;8.342;2022-08-21T09:13:33;30.70;42.40
33825;DHT22;20127;48.962;8.342;2022-08-21T09:16:47;30.80;41.90
33825;DHT22;20127;48.962;8.342;2022-08-21T09:19:59;31.00;41.90
33825;DHT22;20127;48.962;8.342;2022-08-21T09:23:11;31.10;41.60
33825;DHT22;20127;48.962;8.342;2022-08-21T09:26:16;31.30;41.50
33825;DHT22;20127;48.962;8.342;2022-08-21T09:29:22;31.40;41.20
33825;DHT22;20127;48.962;8.342;2022-08-21T09:32:28;31.40;41.00
33825;DHT22;20127;48.962;8.342;2022-08-21T09:35:30;31.50;41.00
33825;DHT22;20127;48.962;8.342;2022-08-21T09:38:35;31.50;40.30
33825;DHT22;20127;48.962;8.342;2022-08-21T09:41:39;31.60;40.40
33825;DHT22;20127;48.962;8.342;2022-08-21T09:44:41;31.60;40.20
33825;DHT22;20127;48.962;8.342;2022-08-21T09:47:46;31.70;40.00
33825;DHT22;20127;48.962;8.342;2022-08-21T09:50:49;31.80;39.80
33825;DHT22;20127;48.962;8.342;2022-08-21T09:53:54;32.20;40.30
33825;DHT22;20127;48.962;8.342;2022-08-21T09:56:59;33.20;38.90
33825;DHT22;20127;48.962;8.342;2022-08-21T10:00:25;34.30;37.20
33825;DHT22;20127;48.962;8.342;2022-08-21T10:03:29;34.60;36.00
33825;DHT22;20127;48.962;8.342;2022-08-21T10:06:31;34.50;36.20
33825;DHT22;20127;48.962;8.342;2022-08-21T10:09:35;34.20;36.30
33825;DHT22;20127;48.962;8.342;2022-08-21T10:12:45;33.80;36.40
33825;DHT22;20127;48.962;8.342;2022-08-21T10:15:57;33.40;36.80
33825;DHT22;20127;48.962;8.342;2022-08-21T10:19:13;33.30;36.80
33825;DHT22;20127;48.962;8.342;2022-08-21T10:22:26;33.40;36.70
33825;DHT22;20127;48.962;8.342;2022-08-21T10:25:35;33.40;36.30
33825;DHT22;20127;48.962;8.342;2022-08-21T10:28:45;33.40;36.10
33825;DHT22;20127;48.962;8.342;2022-08-21T10:31:55;33.60;35.90
33825;DHT22;20127;48.962;8.342;2022-08-21T10:35:09;33.60;36.20
33825;DHT22;20127;48.962;8.342;2022-08-21T10:38:35;33.90;36.10
33825;DHT22;20127;48.962;8.342;2022-08-21T10:41:53;34.00;35.20
33825;DHT22;20127;48.962;8.342;2022-08-21T10:45:09;34.10;35.40
33825;DHT22;20127;48.962;8.342;2022-08-21T10:48:19;34.30;34.70
33825;DHT22;20127;48.962;8.342;2022-08-21T10:51:28;34.30;34.80
33825;DHT22;20127;48.962;8.342;2022-08-21T10:54:39;34.40;34.50
33825;DHT22;20127;48.962;8.342;2022-08-21T10:57:47;34.30;34.90
33825;DHT22;20127;48.962;8.342;2022-08-21T11:00:56;34.40;34.60
33825;DHT22;20127;48.962;8.342;2022-08-21T11:04:10;34.80;34.00
33825;DHT22;20127;48.962;8.342;2022-08-21T11:07:18;34.90;33.70
33825;DHT22;20127;48.962;8.342;2022-08-21T11:10:24;35.10;33.40
33825;DHT22;20127;48.962;8.342;2022-08-21T11:13:31;35.40;33.20
33825;DHT22;20127;48.962;8.342;2022-08-21T11:16:39;35.60;32.90
33825;DHT22;20127;48.962;8.342;2022-08-21T11:19:47;35.60;32.50
33825;DHT22;20127;48.962;8.342;2022-08-21T11:22:56;35.40;32.70
33825;DHT22;20127;48.962;8.342;2022-08-21T11:26:02;35.50;32.50
33825;DHT22;20127;48.962;8.342;2022-08-21T11:29:11;35.70;32.50
33825;DHT22;20127;48.962;8.342;2022-08-21T11:35:48;36.10;31.70
33825;DHT22;20127;48.962;8.342;2022-08-21T11:38:57;36.30;31.50
33825;DHT22;20127;48.962;8.342;2022-08-21T11:42:10;36.50;31.30
33825;DHT22;20127;48.962;8.342;2022-08-21T11:45:22;36.50;31.20
33825;DHT22;20127;48.962;8.342;2022-08-21T11:48:37;36.40;31.20
33825;DHT22;20127;48.962;8.342;2022-08-21T11:51:46;36.20;31.00
33825;DHT22;20127;48.962;8.342;2022-08-21T11:54:54;36.00;31.50
33825;DHT22;20127;48.962;8.342;2022-08-21T11:58:01;36.00;31.40
33825;DHT22;20127;48.962;8.342;2022-08-21T12:01:08;36.20;31.30
33825;DHT22;20127;48.962;8.342;2022-08-21T12:04:18;36.40;31.10
33825;DHT22;20127;48.962;8.342;2022-08-21T12:07:31;36.60;30.50
33825;DHT22;20127;48.962;8.342;2022-08-21T12:10:38;37.00;30.30
33825;DHT22;20127;48.962;8.342;2022-08-21T12:13:54;37.10;30.30
33825;DHT22;20127;48.962;8.342;2022-08-21T12:17:04;37.30;30.00
33825;DHT22;20127;48.962;8.342;2022-08-21T12:20:17;37.20;30.00
33825;DHT22;20127;48.962;8.342;2022-08-21T12:23:27;37.30;29.90
33825;DHT22;20127;48.962;8.342;2022-08-21T12:26:33;37.50;29.70
33825;DHT22;20127;48.962;8.342;2022-08-21T12:29:36;37.80;29.60
33825;DHT22;20127;48.962;8.342;2022-08-21T12:32:46;37.90;29.60
33825;DHT22;20127;48.962;8.342;2022-08-21T12:36:03;38.00;29.50
33825;DHT22;20127;48.962;8.342;2022-08-21T12:39:12;38.00;29.40
33825;DHT22;20127;48.962;8.342;2022-08-21T12:42:20;38.10;29.30
33825;DHT22;20127;48.962;8.342;2022-08-21T12:45:31;38.20;29.20
33825;DHT22;20127;48.962;8.342;2022-08-21T12:48:38;38.30;29.30
33825;DHT22;20127;48.962;8.342;2022-08-21T12:51:52;38.60;29.20
33825;DHT22;20127;48.962;8.342;2022-08-21T12:54:56;38.80;29.00
33825;DHT22;20127;48.962;8.342;2022-08-21T12:58:05;38.80;28.80
33825;DHT22;20127;48.962;8.342;2022-08-21T13:01:23;38.70;29.00
33825;DHT22;20127;48.962;8.342;2022-08-21T13:04:33;38.70;28.80
33825;DHT22;20127;48.962;8.342;2022-08-21T13:07:37;38.80;28.90
33825;DHT22;20127;48.962;8.342;2022-08-21T13:10:40;39.10;28.70
33825;DHT22;20127;48.962;8.342;2022-08-21T13:13:48;39.10;28.60
33825;DHT22;20127;48.962;8.342;2022-08-21T13:16:53;39.20;28.70
33825;DHT22;20127;48.962;8.342;2022-08-21T13:19:58;39.20;28.70
33825;DHT22;20127;48.962;8.342;2022-08-21T13:23:01;39.30;28.60
33825;DHT22;20127;48.962;8.342;2022-08-21T13:26:12;39.20;28.60
33825;DHT22;20127;48.962;8.342;2022-08-21T13:29:17;39.10;28.90
33825;DHT22;20127;48.962;8.342;2022-08-21T13:32:22;39.20;28.50
33825;DHT22;20127;48.962;8.342;2022-08-21T13:35:31;39.20;28.70
33825;DHT22;20127;48.962;8.342;2022-08-21T13:38:36;39.20;28.60
33825;DHT22;20127;48.962;8.342;2022-08-21T13:41:41;39.10;28.60
33825;DHT22;20127;48.962;8.342;2022-08-21T13:44:46;39.10;28.80
33825;DHT22;20127;48.962;8.342;2022-08-21T13:47:48;39.10;28.50
33825;DHT22;20127;48.962;8.342;2022-08-21T13:50:51;39.00;28.50
33825;DHT22;20127;48.962;8.342;2022-08-21T13:53:54;39.10;28.20
33825;DHT22;20127;48.962;8.342;2022-08-21T13:56:56;39.10;28.80
33825;DHT22;20127;48.962;8.342;2022-08-21T14:00:16;39.10;28.10
33825;DHT22;20127;48.962;8.342;2022-08-21T14:03:27;38.00;28.30
33825;DHT22;20127;48.962;8.342;2022-08-21T14:06:34;37.50;28.90
33825;DHT22;20127;48.962;8.342;2022-08-21T14:09:41;37.70;29.10
33825;DHT22;20127;48.962;8.342;2022-08-21T14:12:45;38.00;28.70
33825;DHT22;20127;48.962;8.342;2022-08-21T14:15:56;38.10;28.40
33825;DHT22;20127;48.962;8.342;2022-08-21T14:19:08;38.10;28.40
33825;DHT22;20127;48.962;8.342;2022-08-21T14:22:28;38.10;28.30
33825;DHT22;20127;48.962;8.342;2022-08-21T14:25:37;38.30;28.10
33825;DHT22;20127;48.962;8.342;2022-08-21T14:28:41;37.80;28.20
33825;DHT22;20127;48.962;8.342;2022-08-21T14:31:50;37.40;28.60
33825;DHT22;20127;48.962;8.342;2022-08-21T14:34:52;36.90;28.90
33825;DHT22;20127;48.962;8.342;2022-08-21T14:37:54;37.00;28.70
33825;DHT22;20127;48.962;8.342;2022-08-21T14:40:58;37.40;28.50
33825;DHT22;20127;48.962;8.342;2022-08-21T14:44:01;37.60;28.20
33825;DHT22;20127;48.962;8.342;2022-08-21T14:47:04;37.60;28.30
33825;DHT22;20127;48.962;8.342;2022-08-21T14:50:07;37.80;27.80
33825;DHT22;20127;48.962;8.342;2022-08-21T14:53:08;37.60;27.90
33825;DHT22;20127;48.962;8.342;2022-08-21T14:56:11;37.50;28.00
33825;DHT22;20127;48.962;8.342;2022-08-21T14:59:14;37.60;28.10
33825;DHT22;20127;48.962;8.342;2022-08-21T15:02:17;37.70;28.00
33825;DHT22;20127;48.962;8.342;2022-08-21T15:05:19;37.80;27.80
33825;DHT22;20127;48.962;8.342;2022-08-21T15:08:21;38.00;28.10
33825;DHT22;20127;48.962;8.342;2022-08-21T15:11:24;37.90;28.10
33825;DHT22;20127;48.962;8.342;2022-08-21T15:14:28;38.00;28.10
33825;DHT22;20127;48.962;8.342;2022-08-21T15:17:31;37.90;27.90
33825;DHT22;20127;48.962;8.342;2022-08-21T15:20:33;37.90;27.80
33825;DHT22;20127;48.962;8.342;2022-08-21T15:23:35;38.00;27.90
33825;DHT22;20127;48.962;8.342;2022-08-21T15:26:37;38.20;27.90
33825;DHT22;20127;48.962;8.342;2022-08-21T15:29:39;38.10;27.50
33825;DHT22;20127;48.962;8.342;2022-08-21T15:32:44;37.50;27.60
33825;DHT22;20127;48.962;8.342;2022-08-21T15:35:45;37.00;28.10
33825;DHT22;20127;48.962;8.342;2022-08-21T15:38:47;36.90;28.30
33825;DHT22;20127;48.962;8.342;2022-08-21T15:41:49;37.00;28.30
33825;DHT22;20127;48.962;8.342;2022-08-21T15:44:51;36.90;28.40
33825;DHT22;20127;48.962;8.342;2022-08-21T15:47:56;36.90;28.30
33825;DHT22;20127;48.962;8.342;2022-08-21T15:50:57;37.00;28.00
33825;DHT22;20127;48.962;8.342;2022-08-21T15:53:59;36.90;28.10
33825;DHT22;20127;48.962;8.342;2022-08-21T15:57:01;36.80;28.20
33825;DHT22;20127;48.962;8.342;2022-08-21T16:00:06;36.60;28.40
33825;DHT22;20127;48.962;8.342;2022-08-21T16:03:15;36.20;28.40
33825;DHT22;20127;48.962;8.342;2022-08-21T16:06:20;35.90;28.70
33825;DHT22;20127;48.962;8.342;2022-08-21T16:09:22;35.60;28.70
33825;DHT22;20127;48.962;8.342;2022-08-21T16:12:26;35.40;28.90
33825;DHT22;20127;48.962;8.342;2022-08-21T16:15:31;35.00;29.00
33825;DHT22;20127;48.962;8.342;2022-08-21T16:18:34;34.70;29.20
33825;DHT22;20127;48.962;8.342;2022-08-21T16:21:36;34.40;29.30
33825;DHT22;20127;48.962;8.342;2022-08-21T16:24:37;34.00;29.70
33825;DHT22;20127;48.962;8.342;2022-08-21T16:27:41;33.70;30.10
33825;DHT22;20127;48.962;8.342;2022-08-21T16:30:47;33.50;31.40
33825;DHT22;20127;48.962;8.342;2022-08-21T16:33:53;33.20;29.90
33825;DHT22;20127;48.962;8.342;2022-08-21T16:36:55;33.00;30.00
33825;DHT22;20127;48.962;8.342;2022-08-21T16:39:57;32.70;30.10
33825;DHT22;20127;48.962;8.342;2022-08-21T16:42:59;32.50;30.30
33825;DHT22;20127;48.962;8.342;2022-08-21T16:46:01;32.30;30.10
33825;DHT22;20127;48.962;8.342;2022-08-21T16:49:04;32.10;30.60
33825;DHT22;20127;48.962;8.342;2022-08-21T16:52:07;31.90;31.20
33825;DHT22;20127;48.962;8.342;2022-08-21T16:55:09;31.80;31.40
33825;DHT22;20127;48.962;8.342;2022-08-21T16:58:15;31.60;31.40
33825;DHT22;20127;48.962;8.342;2022-08-21T17:01:20;31.50;31.00
33825;DHT22;20127;48.962;8.342;2022-08-21T17:04:25;31.40;30.50
33825;DHT22;20127;48.962;8.342;2022-08-21T17:07:28;31.30;29.50
33825;DHT22;20127;48.962;8.342;2022-08-21T17:10:30;31.10;28.80
33825;DHT22;20127;48.962;8.342;2022-08-21T17:13:33;31.00;28.50
33825;DHT22;20127;48.962;8.342;2022-08-21T17:16:35;30.90;28.60
33825;DHT22;20127;48.962;8.342;2022-08-21T17:19:39;30.80;28.10
33825;DHT22;20127;48.962;8.342;2022-08-21T17:22:41;30.70;27.90
33825;DHT22;20127;48.962;8.342;2022-08-21T17:25:45;30.60;28.00
33825;DHT22;20127;48.962;8.342;2022-08-21T17:28:47;30.50;28.10
33825;DHT22;20127;48.962;8.342;2022-08-21T17:31:52;30.40;29.20
33825;DHT22;20127;48.962;8.342;2022-08-21T17:34:55;30.30;29.40
33825;DHT22;20127;48.962;8.342;2022-08-21T17:37:57;30.20;29.70
33825;DHT22;20127;48.962;8.342;2022-08-21T17:40:59;30.00;29.80
33825;DHT22;20127;48.962;8.342;2022-08-21T17:44:04;29.80;30.00
33825;DHT22;20127;48.962;8.342;2022-08-21T17:47:09;29.40;30.50
33825;DHT22;20127;48.962;8.342;2022-08-21T17:50:13;29.10;30.80
33825;DHT22;20127;48.962;8.342;2022-08-21T17:53:15;28.60;31.40
33825;DHT22;20127;48.962;8.342;2022-08-21T17:56:18;28.30;32.00
33825;DHT22;20127;48.962;8.342;2022-08-21T17:59:20;27.90;32.60
33825;DHT22;20127;48.962;8.342;2022-08-21T18:02:23;27.60;32.80
33825;DHT22;20127;48.962;8.342;2022-08-21T18:05:26;27.30;33.40
33825;DHT22;20127;48.962;8.342;2022-08-21T18:11:31;26.90;34.50
33825;DHT22;20127;48.962;8.342;2022-08-21T18:14:34;26.70;35.20
33825;DHT22;20127;48.962;8.342;2022-08-21T18:17:37;26.60;35.30
33825;DHT22;20127;48.962;8.342;2022-08-21T18:20:41;26.30;35.50
33825;DHT22;20127;48.962;8.342;2022-08-21T18:23:43;26.10;36.10
33825;DHT22;20127;48.962;8.342;2022-08-21T18:26:45;25.90;36.60
33825;DHT22;20127;48.962;8.342;2022-08-21T18:29:47;25.60;36.80
33825;DHT22;20127;48.962;8.342;2022-08-21T18:32:51;25.40;37.20
33825;DHT22;20127;48.962;8.342;2022-08-21T18:35:55;25.20;37.40
33825;DHT22;20127;48.962;8.342;2022-08-21T18:38:57;25.00;38.30
33825;DHT22;20127;48.962;8.342;2022-08-21T18:42:00;24.80;38.70
33825;DHT22;20127;48.962;8.342;2022-08-21T18:45:07;24.60;38.90
33825;DHT22;20127;48.962;8.342;2022-08-21T18:48:12;24.40;39.70
33825;DHT22;20127;48.962;8.342;2022-08-21T18:51:16;24.20;40.50
33825;DHT22;20127;48.962;8.342;2022-08-21T18:54:18;24.00;40.90
33825;DHT22;20127;48.962;8.342;2022-08-21T18:57:20;23.80;41.40
33825;DHT22;20127;48.962;8.342;2022-08-21T19:00:24;23.60;41.70
33825;DHT22;20127;48.962;8.342;2022-08-21T19:03:26;23.40;42.50
33825;DHT22;20127;48.962;8.342;2022-08-21T19:06:29;23.20;43.00
33825;DHT22;20127;48.962;8.342;2022-08-21T19:09:32;23.00;43.40
33825;DHT22;20127;48.962;8.342;2022-08-21T19:12:34;22.90;43.70
33825;DHT22;20127;48.962;8.342;2022-08-21T19:15:38;22.80;44.20
33825;DHT22;20127;48.962;8.342;2022-08-21T19:18:40;22.70;44.30
33825;DHT22;20127;48.962;8.342;2022-08-21T19:21:44;22.60;44.80
33825;DHT22;20127;48.962;8.342;2022-08-21T19:24:46;22.40;45.00
33825;DHT22;20127;48.962;8.342;2022-08-21T19:27:48;22.30;45.30
33825;DHT22;20127;48.962;8.342;2022-08-21T19:30:55;22.10;45.60